UAL44 KEWR-EDDF
Flight info
| Callsign | UAL44 |
|---|---|
| Flight time | N/A |
| Altitude | 29000 |
| Route | GREKI JUDDS MARTN LOONN TUSKY NICSO 4850N H4940 H4930 H4920 KOGAD ALUTA DCT OQQAL DCT RANUX DCT VALEK DCT LIPNI UN858 BETEX Z110 KULZO T847 IMCOM |
| Aircraft | B77W/H-SDE1E2E3FGHIJ2J3J4J5M1RWXY/LB1D1 |
Departure
| Time | 2026-04-25 16:11 |
|---|---|
| Airport | Newark Liberty International Airport (KEWR) |
Arrival
| Time | N/A |
|---|---|
| Airport | Frankfurt Main Airport (EDDF) |
| Time | Latitude | Longitude | Altitude | Speed | Heading |
|---|---|---|---|---|---|
| 2026-04-25 16:04 | 40.68459 | -74.17519 | 29 ft | 15 kts | 206° |
| 2026-04-25 16:05 | 40.68413 | -74.17549 | 30 ft | 18 kts | 206° |
| 2026-04-25 16:05 | 40.68311 | -74.17614 | 30 ft | 27 kts | 205° |
| 2026-04-25 16:05 | 40.68057 | -74.17773 | 30 ft | 15 kts | 205° |
| 2026-04-25 16:06 | 40.67974 | -74.17825 | 30 ft | 14 kts | 206° |
| 2026-04-25 16:06 | 40.67897 | -74.17875 | 30 ft | 12 kts | 206° |
| 2026-04-25 16:06 | 40.67852 | -74.17904 | 30 ft | 11 kts | 205° |
| 2026-04-25 16:07 | 40.67835 | -74.17914 | 30 ft | 11 kts | 205° |
| 2026-04-25 16:08 | 40.67775 | -74.17953 | 30 ft | 10 kts | 206° |
| 2026-04-25 16:08 | 40.67721 | -74.17986 | 30 ft | 9 kts | 206° |
| 2026-04-25 16:08 | 40.67672 | -74.18018 | 30 ft | 8 kts | 206° |
| 2026-04-25 16:08 | 40.67630 | -74.18037 | 30 ft | 0 kts | 181° |
| 2026-04-25 16:09 | 40.67613 | -74.18034 | 30 ft | 5 kts | 164° |
| 2026-04-25 16:09 | 40.67571 | -74.17982 | 30 ft | 11 kts | 108° |
| 2026-04-25 16:09 | 40.67582 | -74.17935 | 30 ft | 6 kts | 49° |
| 2026-04-25 16:10 | 40.67607 | -74.17905 | 30 ft | 5 kts | 35° |
| 2026-04-25 16:10 | 40.67634 | -74.17884 | 30 ft | 4 kts | 27° |
| 2026-04-25 16:10 | 40.67636 | -74.17883 | 30 ft | 1 kts | 27° |
| 2026-04-25 16:10 | 40.67694 | -74.17844 | 30 ft | 20 kts | 26° |
| 2026-04-25 16:11 | 40.67978 | -74.17660 | 30 ft | 84 kts | 26° |
| 2026-04-25 16:11 | 40.68612 | -74.17259 | 30 ft | 144 kts | 26° |
| 2026-04-25 16:11 | 40.69556 | -74.16671 | 212 ft | 182 kts | 27° |
| 2026-04-25 16:11 | 40.70595 | -74.15958 | 960 ft | 183 kts | 36° |
| 2026-04-25 16:12 | 40.71663 | -74.15085 | 1626 ft | 201 kts | 30° |
| 2026-04-25 16:12 | 40.72843 | -74.14379 | 2467 ft | 210 kts | 28° |
| 2026-04-25 16:12 | 40.74098 | -74.13631 | 2975 ft | 224 kts | 28° |
| 2026-04-25 16:12 | 40.74533 | -74.13371 | 3160 ft | 226 kts | 28° |
| 2026-04-25 16:13 | 40.76556 | -74.12164 | 3753 ft | 250 kts | 27° |
| 2026-04-25 16:13 | 40.78015 | -74.11271 | 4239 ft | 264 kts | 27° |
| 2026-04-25 16:13 | 40.79484 | -74.10330 | 4803 ft | 272 kts | 27° |
| 2026-04-25 16:13 | 40.80941 | -74.09364 | 4965 ft | 274 kts | 27° |
| 2026-04-25 16:14 | 40.82478 | -74.08324 | 4982 ft | 273 kts | 27° |
| 2026-04-25 16:14 | 40.83959 | -74.07321 | 4984 ft | 273 kts | 27° |
| 2026-04-25 16:14 | 40.85559 | -74.06237 | 4984 ft | 272 kts | 27° |
| 2026-04-25 16:14 | 40.87132 | -74.05175 | 4986 ft | 273 kts | 27° |
| 2026-04-25 16:15 | 40.88543 | -74.04224 | 4986 ft | 273 kts | 27° |
| 2026-04-25 16:15 | 40.89964 | -74.02902 | 5043 ft | 284 kts | 51° |
| 2026-04-25 16:15 | 40.90831 | -74.01030 | 5842 ft | 279 kts | 65° |
| 2026-04-25 16:15 | 40.91469 | -73.99128 | 6595 ft | 279 kts | 67° |
| 2026-04-25 16:16 | 40.92155 | -73.96928 | 7215 ft | 287 kts | 67° |
| 2026-04-25 16:16 | 40.92815 | -73.94759 | 7858 ft | 291 kts | 67° |
| 2026-04-25 16:16 | 40.93512 | -73.92416 | 8497 ft | 297 kts | 67° |
| 2026-04-25 16:16 | 40.94223 | -73.89982 | 9128 ft | 303 kts | 67° |
| 2026-04-25 16:17 | 40.94912 | -73.87549 | 9767 ft | 308 kts | 67° |
| 2026-04-25 16:17 | 40.95590 | -73.85115 | 9994 ft | 316 kts | 67° |
| 2026-04-25 16:17 | 40.96321 | -73.82507 | 10366 ft | 332 kts | 67° |
| 2026-04-25 16:17 | 40.97040 | -73.79926 | 10740 ft | 346 kts | 67° |
| 2026-04-25 16:18 | 40.97769 | -73.77313 | 11111 ft | 360 kts | 67° |
| 2026-04-25 16:18 | 40.98048 | -73.76321 | 11259 ft | 364 kts | 67° |
| 2026-04-25 16:18 | 40.99457 | -73.71323 | 11979 ft | 388 kts | 67° |
| 2026-04-25 16:18 | 41.00330 | -73.68232 | 12403 ft | 401 kts | 67° |
| 2026-04-25 16:19 | 41.01228 | -73.65048 | 12845 ft | 414 kts | 67° |
| 2026-04-25 16:19 | 41.02159 | -73.61760 | 13432 ft | 421 kts | 66° |
| 2026-04-25 16:19 | 41.03323 | -73.58439 | 14223 ft | 421 kts | 57° |
| 2026-04-25 16:20 | 41.06835 | -73.52755 | 15567 ft | 423 kts | 36° |
| 2026-04-25 16:20 | 41.09056 | -73.50607 | 16189 ft | 423 kts | 26° |
| 2026-04-25 16:20 | 41.14189 | -73.47652 | 16976 ft | 425 kts | 14° |
| 2026-04-25 16:21 | 41.16759 | -73.46425 | 17324 ft | 435 kts | 14° |
| 2026-04-25 16:21 | 41.19356 | -73.45181 | 18285 ft | 430 kts | 14° |
| 2026-04-25 16:21 | 41.21912 | -73.43957 | 19162 ft | 427 kts | 13° |
| 2026-04-25 16:21 | 41.24637 | -73.42652 | 19901 ft | 429 kts | 13° |
| 2026-04-25 16:22 | 41.27336 | -73.41360 | 20520 ft | 433 kts | 13° |
| 2026-04-25 16:22 | 41.29998 | -73.40084 | 21150 ft | 435 kts | 13° |
| 2026-04-25 16:22 | 41.32667 | -73.38803 | 21811 ft | 437 kts | 13° |
| 2026-04-25 16:22 | 41.35438 | -73.37472 | 22470 ft | 438 kts | 13° |
| 2026-04-25 16:23 | 41.38242 | -73.36123 | 23053 ft | 442 kts | 13° |
| 2026-04-25 16:23 | 41.41009 | -73.34792 | 23600 ft | 445 kts | 13° |
| 2026-04-25 16:23 | 41.43840 | -73.33426 | 24112 ft | 449 kts | 14° |
| 2026-04-25 16:23 | 41.46699 | -73.31681 | 24702 ft | 460 kts | 22° |
| 2026-04-25 16:24 | 41.49327 | -73.29383 | 25351 ft | 469 kts | 31° |
| 2026-04-25 16:24 | 41.51728 | -73.26568 | 25782 ft | 481 kts | 38° |
| 2026-04-25 16:24 | 41.54088 | -73.23438 | 26168 ft | 489 kts | 38° |
| 2026-04-25 16:24 | 41.56513 | -73.20239 | 26657 ft | 490 kts | 35° |
| 2026-04-25 16:25 | 41.59161 | -73.17444 | 26951 ft | 489 kts | 26° |
| 2026-04-25 16:25 | 41.60063 | -73.16672 | 27030 ft | 489 kts | 24° |
| 2026-04-25 16:25 | 41.65238 | -73.13613 | 27734 ft | 481 kts | 9° |
| 2026-04-25 16:25 | 41.68494 | -73.12670 | 28320 ft | 473 kts | 0° |
| 2026-04-25 16:26 | 41.71795 | -73.12380 | 28925 ft | 464 kts | 353° |
| 2026-04-25 16:26 | 41.74965 | -73.12664 | 29063 ft | 464 kts | 347° |
| 2026-04-25 16:26 | 41.78092 | -73.13206 | 29086 ft | 472 kts | 347° |
| 2026-04-25 16:27 | 41.84473 | -73.14336 | 29071 ft | 480 kts | 347° |
| 2026-04-25 16:27 | 41.90815 | -73.15437 | 29068 ft | 479 kts | 347° |
| 2026-04-25 16:28 | 41.97319 | -73.16558 | 29067 ft | 480 kts | 347° |
| 2026-04-25 16:28 | 42.03701 | -73.17654 | 29061 ft | 481 kts | 347° |
| 2026-04-25 16:29 | 42.10037 | -73.18742 | 29059 ft | 479 kts | 347° |
| 2026-04-25 16:29 | 42.16288 | -73.19817 | 29055 ft | 481 kts | 347° |
| 2026-04-25 16:30 | 42.22269 | -73.20846 | 29049 ft | 481 kts | 347° |
| 2026-04-25 16:30 | 42.28326 | -73.21890 | 29050 ft | 481 kts | 347° |
| 2026-04-25 16:31 | 42.34347 | -73.22929 | 29055 ft | 480 kts | 347° |
| 2026-04-25 16:31 | 42.40547 | -73.24000 | 29058 ft | 481 kts | 347° |
| 2026-04-25 16:32 | 42.46782 | -73.25050 | 29055 ft | 482 kts | 350° |
| 2026-04-25 16:32 | 42.53146 | -73.24496 | 29061 ft | 495 kts | 5° |
| 2026-04-25 16:32 | 42.56313 | -73.23259 | 29060 ft | 506 kts | 13° |
| 2026-04-25 16:33 | 42.59338 | -73.21421 | 29059 ft | 515 kts | 21° |
| 2026-04-25 16:33 | 42.64762 | -73.16052 | 29055 ft | 527 kts | 38° |
| 2026-04-25 16:33 | 42.67072 | -73.12537 | 29055 ft | 539 kts | 46° |
| 2026-04-25 16:34 | 42.69109 | -73.08584 | 29056 ft | 548 kts | 50° |
| 2026-04-25 16:34 | 42.73224 | -73.00334 | 29039 ft | 552 kts | 49° |
| 2026-04-25 16:35 | 42.77329 | -72.92355 | 29030 ft | 551 kts | 48° |
| 2026-04-25 16:35 | 42.81327 | -72.84732 | 29032 ft | 552 kts | 47° |
| 2026-04-25 16:36 | 42.85365 | -72.77109 | 29038 ft | 551 kts | 47° |
| 2026-04-25 16:36 | 42.89773 | -72.68827 | 29049 ft | 550 kts | 47° |
| 2026-04-25 16:37 | 42.94000 | -72.60905 | 29050 ft | 551 kts | 47° |
| 2026-04-25 16:37 | 42.98155 | -72.53114 | 29058 ft | 549 kts | 46° |
| 2026-04-25 16:38 | 43.02610 | -72.44752 | 29056 ft | 548 kts | 46° |
| 2026-04-25 16:38 | 43.07120 | -72.36272 | 29049 ft | 548 kts | 46° |
| 2026-04-25 16:39 | 43.11483 | -72.28050 | 29053 ft | 549 kts | 47° |
| 2026-04-25 16:39 | 43.15852 | -72.19795 | 29043 ft | 549 kts | 47° |
| 2026-04-25 16:40 | 43.20130 | -72.11691 | 29047 ft | 548 kts | 46° |
| 2026-04-25 16:40 | 43.24662 | -72.03081 | 29052 ft | 547 kts | 47° |
| 2026-04-25 16:41 | 43.29189 | -71.94459 | 29061 ft | 548 kts | 47° |
| 2026-04-25 16:41 | 43.35945 | -71.81541 | 29060 ft | 547 kts | 46° |
| 2026-04-25 16:42 | 43.40243 | -71.73294 | 29067 ft | 546 kts | 46° |
| 2026-04-25 16:42 | 43.44589 | -71.64933 | 29067 ft | 545 kts | 46° |
| 2026-04-25 16:43 | 43.48971 | -71.56477 | 29076 ft | 545 kts | 46° |
| 2026-04-25 16:43 | 43.53424 | -71.47857 | 29087 ft | 544 kts | 47° |
| 2026-04-25 16:44 | 43.56841 | -71.38796 | 29087 ft | 565 kts | 63° |
| 2026-04-25 16:44 | 43.58492 | -71.28233 | 29069 ft | 581 kts | 80° |
| 2026-04-25 16:45 | 43.58702 | -71.17490 | 29072 ft | 587 kts | 84° |
| 2026-04-25 16:45 | 43.58815 | -71.06104 | 29069 ft | 588 kts | 83° |
| 2026-04-25 16:46 | 43.58927 | -70.94843 | 29075 ft | 589 kts | 83° |
| 2026-04-25 16:46 | 43.59001 | -70.87228 | 29075 ft | 588 kts | 83° |
| 2026-04-25 16:47 | 43.59137 | -70.72424 | 29081 ft | 588 kts | 83° |
| 2026-04-25 16:47 | 43.59230 | -70.61243 | 29093 ft | 586 kts | 83° |
| 2026-04-25 16:48 | 43.59312 | -70.50342 | 29097 ft | 588 kts | 83° |
| 2026-04-25 16:48 | 43.59386 | -70.39204 | 29100 ft | 587 kts | 82° |
| 2026-04-25 16:49 | 43.59450 | -70.27994 | 29095 ft | 586 kts | 83° |
| 2026-04-25 16:49 | 43.59504 | -70.16763 | 29095 ft | 588 kts | 83° |
| 2026-04-25 16:50 | 43.59546 | -70.05681 | 29100 ft | 586 kts | 83° |
| 2026-04-25 16:50 | 43.59578 | -69.94504 | 29099 ft | 587 kts | 83° |
| 2026-04-25 16:51 | 43.59599 | -69.83360 | 29097 ft | 586 kts | 83° |
| 2026-04-25 16:51 | 43.59607 | -69.75864 | 29091 ft | 586 kts | 83° |
| 2026-04-25 16:52 | 43.59609 | -69.61024 | 29099 ft | 587 kts | 83° |
| 2026-04-25 16:52 | 43.59597 | -69.49766 | 29093 ft | 585 kts | 83° |
| 2026-04-25 16:53 | 43.59559 | -69.32925 | 29087 ft | 585 kts | 84° |
| 2026-04-25 16:54 | 43.59521 | -69.21660 | 29079 ft | 586 kts | 83° |
| 2026-04-25 16:54 | 43.59470 | -69.10405 | 29081 ft | 586 kts | 84° |
| 2026-04-25 16:55 | 43.59409 | -68.99174 | 29085 ft | 584 kts | 84° |
| 2026-04-25 16:55 | 43.59338 | -68.87927 | 29090 ft | 586 kts | 84° |
| 2026-04-25 16:56 | 43.59253 | -68.76677 | 29089 ft | 581 kts | 84° |
| 2026-04-25 16:56 | 43.59159 | -68.65526 | 29083 ft | 576 kts | 84° |
| 2026-04-25 16:57 | 43.59056 | -68.54465 | 29081 ft | 575 kts | 84° |
| 2026-04-25 16:57 | 43.58943 | -68.43471 | 29095 ft | 575 kts | 84° |
| 2026-04-25 16:58 | 43.58821 | -68.32688 | 29096 ft | 571 kts | 85° |
| 2026-04-25 16:58 | 43.58696 | -68.22353 | 29087 ft | 570 kts | 84° |
| 2026-04-25 16:59 | 43.58560 | -68.11887 | 29078 ft | 571 kts | 85° |
| 2026-04-25 16:59 | 43.58414 | -68.01482 | 29084 ft | 567 kts | 85° |
| 2026-04-25 17:00 | 43.58252 | -67.90658 | 29069 ft | 564 kts | 85° |
| 2026-04-25 17:00 | 43.58089 | -67.80321 | 29117 ft | 563 kts | 85° |
| 2026-04-25 17:00 | 43.58003 | -67.75170 | 29304 ft | 560 kts | 85° |
| 2026-04-25 17:01 | 43.57914 | -67.69973 | 29556 ft | 559 kts | 85° |
| 2026-04-25 17:01 | 43.57825 | -67.64844 | 29800 ft | 558 kts | 85° |
| 2026-04-25 17:01 | 43.57733 | -67.59679 | 30005 ft | 558 kts | 85° |
| 2026-04-25 17:01 | 43.57641 | -67.54582 | 30260 ft | 559 kts | 85° |
| 2026-04-25 17:02 | 43.57545 | -67.49460 | 30568 ft | 558 kts | 85° |
| 2026-04-25 17:02 | 43.57446 | -67.44341 | 30783 ft | 558 kts | 85° |
| 2026-04-25 17:02 | 43.57344 | -67.39157 | 31024 ft | 557 kts | 85° |
| 2026-04-25 17:02 | 43.57278 | -67.35832 | 31161 ft | 557 kts | 85° |
| 2026-04-25 17:03 | 43.57141 | -67.29130 | 31464 ft | 556 kts | 86° |
| 2026-04-25 17:03 | 43.57035 | -67.24114 | 31683 ft | 556 kts | 85° |
| 2026-04-25 17:03 | 43.56926 | -67.19022 | 31897 ft | 556 kts | 85° |
| 2026-04-25 17:03 | 43.56813 | -67.13843 | 32139 ft | 555 kts | 86° |
| 2026-04-25 17:04 | 43.56702 | -67.08775 | 32369 ft | 553 kts | 85° |
| 2026-04-25 17:04 | 43.56836 | -67.03593 | 32599 ft | 546 kts | 78° |
| 2026-04-25 17:04 | 43.57435 | -66.98473 | 32839 ft | 537 kts | 70° |
| 2026-04-25 17:04 | 43.58470 | -66.93567 | 33075 ft | 527 kts | 62° |
| 2026-04-25 17:05 | 43.59906 | -66.88948 | 33312 ft | 519 kts | 56° |
| 2026-04-25 17:05 | 43.63169 | -66.80072 | 33773 ft | 517 kts | 56° |
| 2026-04-25 17:05 | 43.64733 | -66.75604 | 33970 ft | 517 kts | 57° |
| 2026-04-25 17:06 | 43.66258 | -66.71209 | 34184 ft | 517 kts | 57° |
| 2026-04-25 17:06 | 43.67719 | -66.66991 | 34400 ft | 516 kts | 57° |
| 2026-04-25 17:06 | 43.69152 | -66.62846 | 34617 ft | 515 kts | 57° |
| 2026-04-25 17:06 | 43.70688 | -66.58397 | 34851 ft | 513 kts | 57° |
| 2026-04-25 17:07 | 43.72211 | -66.53980 | 35007 ft | 514 kts | 58° |
| 2026-04-25 17:07 | 43.73667 | -66.49753 | 35022 ft | 516 kts | 58° |
| 2026-04-25 17:07 | 43.76652 | -66.41065 | 35019 ft | 520 kts | 58° |
| 2026-04-25 17:08 | 43.79682 | -66.32212 | 35011 ft | 521 kts | 59° |
| 2026-04-25 17:08 | 43.82619 | -66.23604 | 35010 ft | 521 kts | 59° |
| 2026-04-25 17:09 | 43.85648 | -66.14696 | 35006 ft | 519 kts | 59° |
| 2026-04-25 17:09 | 43.88698 | -66.05696 | 35004 ft | 517 kts | 59° |
| 2026-04-25 17:10 | 43.91635 | -65.97003 | 35007 ft | 517 kts | 60° |
| 2026-04-25 17:10 | 43.94627 | -65.88120 | 35002 ft | 519 kts | 60° |
| 2026-04-25 17:11 | 43.97570 | -65.79349 | 35002 ft | 518 kts | 60° |
| 2026-04-25 17:11 | 44.00580 | -65.70351 | 34995 ft | 518 kts | 60° |
| 2026-04-25 17:12 | 44.03455 | -65.61728 | 34985 ft | 518 kts | 60° |
| 2026-04-25 17:12 | 44.06467 | -65.52665 | 34989 ft | 518 kts | 60° |
| 2026-04-25 17:13 | 44.08460 | -65.46650 | 34975 ft | 517 kts | 60° |
| 2026-04-25 17:13 | 44.12368 | -65.34815 | 34981 ft | 517 kts | 61° |
| 2026-04-25 17:14 | 44.15257 | -65.26035 | 34973 ft | 518 kts | 62° |
| 2026-04-25 17:14 | 44.18109 | -65.17336 | 34988 ft | 517 kts | 62° |
| 2026-04-25 17:15 | 44.21069 | -65.08281 | 34979 ft | 517 kts | 62° |
| 2026-04-25 17:15 | 44.23986 | -64.99324 | 34980 ft | 516 kts | 62° |
| 2026-04-25 17:16 | 44.26798 | -64.90659 | 34969 ft | 515 kts | 62° |
| 2026-04-25 17:16 | 44.29546 | -64.82165 | 34969 ft | 514 kts | 62° |
| 2026-04-25 17:17 | 44.32297 | -64.73634 | 34960 ft | 514 kts | 62° |
| 2026-04-25 17:17 | 44.35032 | -64.65128 | 34972 ft | 513 kts | 62° |
| 2026-04-25 17:18 | 44.37749 | -64.56647 | 34967 ft | 513 kts | 62° |
| 2026-04-25 17:18 | 44.40430 | -64.48253 | 34945 ft | 512 kts | 62° |
| 2026-04-25 17:19 | 44.43084 | -64.39915 | 34967 ft | 512 kts | 62° |
| 2026-04-25 17:19 | 44.45725 | -64.31593 | 34972 ft | 512 kts | 63° |
| 2026-04-25 17:20 | 44.48384 | -64.23188 | 34965 ft | 510 kts | 63° |
| 2026-04-25 17:20 | 44.51053 | -64.14725 | 34957 ft | 511 kts | 63° |
| 2026-04-25 17:21 | 44.53695 | -64.06316 | 34961 ft | 509 kts | 63° |
| 2026-04-25 17:21 | 44.56267 | -63.98105 | 34946 ft | 508 kts | 63° |
| 2026-04-25 17:22 | 44.58009 | -63.92531 | 34937 ft | 509 kts | 63° |
| 2026-04-25 17:22 | 44.61534 | -63.81213 | 34923 ft | 509 kts | 63° |
| 2026-04-25 17:23 | 44.64106 | -63.72922 | 34927 ft | 509 kts | 63° |
| 2026-04-25 17:23 | 44.66720 | -63.64469 | 34934 ft | 507 kts | 63° |
| 2026-04-25 17:24 | 44.69344 | -63.55956 | 34917 ft | 507 kts | 63° |
| 2026-04-25 17:24 | 44.72027 | -63.47221 | 34915 ft | 507 kts | 63° |
| 2026-04-25 17:25 | 44.74618 | -63.38757 | 34909 ft | 507 kts | 63° |
| 2026-04-25 17:25 | 44.77188 | -63.30336 | 34895 ft | 508 kts | 64° |
| 2026-04-25 17:26 | 44.79823 | -63.21673 | 34904 ft | 508 kts | 64° |
| 2026-04-25 17:26 | 44.82375 | -63.13252 | 34903 ft | 508 kts | 64° |
| 2026-04-25 17:27 | 44.84845 | -63.05076 | 34890 ft | 507 kts | 64° |
| 2026-04-25 17:27 | 44.86502 | -62.99578 | 34903 ft | 508 kts | 64° |
| 2026-04-25 17:28 | 44.89957 | -62.88071 | 34870 ft | 506 kts | 64° |
| 2026-04-25 17:28 | 44.92604 | -62.79221 | 34863 ft | 506 kts | 64° |
| 2026-04-25 17:29 | 44.95232 | -62.70406 | 34834 ft | 507 kts | 64° |
| 2026-04-25 17:29 | 44.97772 | -62.61852 | 34852 ft | 507 kts | 64° |
| 2026-04-25 17:30 | 45.00261 | -62.53446 | 34836 ft | 507 kts | 64° |
| 2026-04-25 17:30 | 45.02725 | -62.45095 | 34832 ft | 507 kts | 64° |
| 2026-04-25 17:31 | 45.05207 | -62.36655 | 34826 ft | 508 kts | 64° |
| 2026-04-25 17:31 | 45.07690 | -62.28180 | 34818 ft | 507 kts | 65° |
| 2026-04-25 17:32 | 45.10146 | -62.19771 | 34823 ft | 506 kts | 65° |
| 2026-04-25 17:32 | 45.12630 | -62.11239 | 34818 ft | 507 kts | 65° |
| 2026-04-25 17:33 | 45.15179 | -62.02448 | 34817 ft | 507 kts | 65° |
| 2026-04-25 17:33 | 45.17665 | -61.93848 | 34821 ft | 507 kts | 65° |
| 2026-04-25 17:34 | 45.20153 | -61.85213 | 34827 ft | 507 kts | 65° |
| 2026-04-25 17:34 | 45.22590 | -61.76720 | 34823 ft | 506 kts | 65° |
| 2026-04-25 17:35 | 45.25051 | -61.68118 | 34812 ft | 507 kts | 65° |
| 2026-04-25 17:35 | 45.27466 | -61.59646 | 34800 ft | 507 kts | 65° |
| 2026-04-25 17:36 | 45.29870 | -61.51185 | 34790 ft | 506 kts | 65° |
| 2026-04-25 17:36 | 45.32267 | -61.42717 | 34780 ft | 506 kts | 65° |
| 2026-04-25 17:37 | 45.34638 | -61.34315 | 34779 ft | 505 kts | 65° |
| 2026-04-25 17:37 | 45.37003 | -61.25903 | 34783 ft | 506 kts | 65° |
| 2026-04-25 17:38 | 45.38577 | -61.20287 | 34780 ft | 507 kts | 65° |
| 2026-04-25 17:38 | 45.41698 | -61.09116 | 34763 ft | 507 kts | 65° |
| 2026-04-25 17:39 | 45.44020 | -61.00774 | 34758 ft | 506 kts | 65° |
| 2026-04-25 17:39 | 45.46448 | -60.92017 | 34764 ft | 506 kts | 65° |
| 2026-04-25 17:40 | 45.48795 | -60.83520 | 34752 ft | 505 kts | 65° |
| 2026-04-25 17:40 | 45.51068 | -60.75267 | 34752 ft | 505 kts | 65° |
| 2026-04-25 17:41 | 45.53418 | -60.66714 | 34746 ft | 505 kts | 65° |
| 2026-04-25 17:41 | 45.55742 | -60.58217 | 34746 ft | 506 kts | 65° |
| 2026-04-25 17:42 | 45.58084 | -60.49621 | 34741 ft | 506 kts | 65° |
| 2026-04-25 17:42 | 45.60395 | -60.41111 | 34732 ft | 506 kts | 65° |
| 2026-04-25 17:43 | 45.62792 | -60.32248 | 34717 ft | 507 kts | 66° |
| 2026-04-25 17:43 | 45.65100 | -60.23683 | 34716 ft | 506 kts | 66° |
| 2026-04-25 17:44 | 45.67410 | -60.15079 | 34719 ft | 506 kts | 66° |
| 2026-04-25 17:44 | 45.69686 | -60.06573 | 34722 ft | 506 kts | 66° |
| 2026-04-25 17:45 | 45.71214 | -60.00844 | 34715 ft | 506 kts | 65° |
| 2026-04-25 17:45 | 45.74261 | -59.89381 | 34705 ft | 506 kts | 65° |
| 2026-04-25 17:46 | 45.76526 | -59.80827 | 34714 ft | 507 kts | 66° |
| 2026-04-25 17:46 | 45.78795 | -59.72219 | 34701 ft | 507 kts | 66° |
| 2026-04-25 17:47 | 45.81077 | -59.63534 | 34681 ft | 506 kts | 65° |
| 2026-04-25 17:47 | 45.83324 | -59.54950 | 34687 ft | 506 kts | 65° |
| 2026-04-25 17:48 | 45.86726 | -59.41894 | 34683 ft | 506 kts | 65° |
| 2026-04-25 17:49 | 45.88974 | -59.33227 | 34673 ft | 507 kts | 66° |
| 2026-04-25 17:49 | 45.91203 | -59.24598 | 34665 ft | 508 kts | 66° |
| 2026-04-25 17:50 | 45.93433 | -59.15935 | 34668 ft | 508 kts | 66° |
| 2026-04-25 17:50 | 45.95648 | -59.07298 | 34661 ft | 508 kts | 66° |
| 2026-04-25 17:51 | 45.97878 | -58.98570 | 34655 ft | 508 kts | 66° |
| 2026-04-25 17:51 | 46.00091 | -58.89877 | 34647 ft | 507 kts | 66° |
| 2026-04-25 17:52 | 46.02289 | -58.81210 | 34637 ft | 507 kts | 66° |
| 2026-04-25 17:52 | 46.04483 | -58.72525 | 34636 ft | 507 kts | 66° |
| 2026-04-25 17:53 | 46.06673 | -58.63823 | 34634 ft | 508 kts | 66° |
| 2026-04-25 17:53 | 46.08856 | -58.55111 | 34639 ft | 499 kts | 66° |
| 2026-04-25 17:53 | 46.09892 | -58.50956 | 34622 ft | 484 kts | 66° |
| 2026-04-25 17:54 | 46.10918 | -58.46834 | 34633 ft | 471 kts | 66° |
| 2026-04-25 17:54 | 46.12883 | -58.38932 | 34637 ft | 467 kts | 66° |
| 2026-04-25 17:55 | 46.14890 | -58.30843 | 34636 ft | 469 kts | 67° |
| 2026-04-25 17:55 | 46.16860 | -58.22871 | 34627 ft | 469 kts | 67° |
| 2026-04-25 17:56 | 46.18863 | -58.14738 | 34625 ft | 470 kts | 67° |
| 2026-04-25 17:56 | 46.20844 | -58.06661 | 34626 ft | 470 kts | 67° |
| 2026-04-25 17:57 | 46.22816 | -57.98597 | 34611 ft | 470 kts | 67° |
| 2026-04-25 17:57 | 46.24795 | -57.90474 | 34612 ft | 470 kts | 67° |
| 2026-04-25 17:58 | 46.26748 | -57.82428 | 34609 ft | 469 kts | 67° |
| 2026-04-25 17:58 | 46.28605 | -57.74749 | 34594 ft | 469 kts | 67° |
| 2026-04-25 17:59 | 46.30462 | -57.67047 | 34593 ft | 470 kts | 67° |
| 2026-04-25 17:59 | 46.32320 | -57.59310 | 34591 ft | 469 kts | 67° |
| 2026-04-25 18:00 | 46.33871 | -57.52837 | 34588 ft | 471 kts | 67° |
| 2026-04-25 18:00 | 46.36037 | -57.43757 | 34575 ft | 470 kts | 67° |
| 2026-04-25 18:01 | 46.37900 | -57.35921 | 34570 ft | 472 kts | 67° |
| 2026-04-25 18:01 | 46.39748 | -57.28119 | 34565 ft | 472 kts | 68° |
| 2026-04-25 18:02 | 46.41654 | -57.20042 | 34554 ft | 472 kts | 68° |
| 2026-04-25 18:02 | 46.43540 | -57.12018 | 34562 ft | 472 kts | 68° |
| 2026-04-25 18:03 | 46.45441 | -57.03905 | 34558 ft | 474 kts | 68° |
| 2026-04-25 18:03 | 46.47360 | -56.95692 | 34565 ft | 488 kts | 68° |
| 2026-04-25 18:04 | 46.49369 | -56.87063 | 34564 ft | 503 kts | 68° |
| 2026-04-25 18:04 | 46.51479 | -56.77959 | 34563 ft | 513 kts | 68° |
| 2026-04-25 18:05 | 46.53645 | -56.68566 | 34547 ft | 513 kts | 68° |
| 2026-04-25 18:05 | 46.55773 | -56.59292 | 34539 ft | 513 kts | 68° |
| 2026-04-25 18:06 | 46.57825 | -56.50314 | 34534 ft | 513 kts | 68° |
| 2026-04-25 18:06 | 46.59930 | -56.41068 | 34536 ft | 514 kts | 68° |
| 2026-04-25 18:07 | 46.62036 | -56.31774 | 34531 ft | 514 kts | 69° |
| 2026-04-25 18:07 | 46.64191 | -56.22220 | 34521 ft | 514 kts | 69° |
| 2026-04-25 18:08 | 46.66317 | -56.12758 | 34513 ft | 514 kts | 69° |
| 2026-04-25 18:08 | 46.68380 | -56.03531 | 34513 ft | 514 kts | 69° |
| 2026-04-25 18:09 | 46.70427 | -55.94337 | 34512 ft | 515 kts | 69° |
| 2026-04-25 18:09 | 46.72470 | -55.85122 | 34507 ft | 515 kts | 69° |
| 2026-04-25 18:10 | 46.74458 | -55.76113 | 34487 ft | 515 kts | 69° |
| 2026-04-25 18:10 | 46.76447 | -55.67064 | 34475 ft | 514 kts | 69° |
| 2026-04-25 18:11 | 46.78434 | -55.57980 | 34469 ft | 513 kts | 69° |
| 2026-04-25 18:11 | 46.80412 | -55.48902 | 34466 ft | 513 kts | 69° |
| 2026-04-25 18:12 | 46.82396 | -55.39755 | 34468 ft | 513 kts | 69° |
| 2026-04-25 18:12 | 46.84275 | -55.31055 | 34462 ft | 514 kts | 70° |
| 2026-04-25 18:13 | 46.86129 | -55.22434 | 34452 ft | 513 kts | 70° |
| 2026-04-25 18:13 | 46.87957 | -55.13900 | 34453 ft | 513 kts | 70° |
| 2026-04-25 18:14 | 46.90686 | -55.01093 | 34449 ft | 513 kts | 70° |
| 2026-04-25 18:14 | 46.92501 | -54.92529 | 34454 ft | 513 kts | 70° |
| 2026-04-25 18:15 | 46.94373 | -54.83658 | 34423 ft | 511 kts | 70° |
| 2026-04-25 18:15 | 46.96302 | -54.74477 | 34432 ft | 512 kts | 70° |
| 2026-04-25 18:16 | 46.98214 | -54.65335 | 34425 ft | 510 kts | 70° |
| 2026-04-25 18:17 | 47.01046 | -54.51718 | 34404 ft | 510 kts | 70° |
| 2026-04-25 18:17 | 47.02885 | -54.42826 | 34392 ft | 509 kts | 70° |
| 2026-04-25 18:18 | 47.04763 | -54.33709 | 34396 ft | 508 kts | 71° |
| 2026-04-25 18:18 | 47.06677 | -54.24368 | 34396 ft | 508 kts | 71° |
| 2026-04-25 18:19 | 47.08573 | -54.15073 | 34381 ft | 506 kts | 71° |
| 2026-04-25 18:19 | 47.10463 | -54.05767 | 34379 ft | 505 kts | 71° |
| 2026-04-25 18:20 | 47.12382 | -53.96265 | 34381 ft | 505 kts | 71° |
| 2026-04-25 18:20 | 47.14374 | -53.86361 | 34374 ft | 506 kts | 70° |
| 2026-04-25 18:21 | 47.16317 | -53.76654 | 34370 ft | 506 kts | 70° |
| 2026-04-25 18:21 | 47.18075 | -53.67825 | 34373 ft | 507 kts | 71° |
| 2026-04-25 18:22 | 47.19882 | -53.58711 | 34364 ft | 507 kts | 71° |
| 2026-04-25 18:22 | 47.21685 | -53.49575 | 34361 ft | 507 kts | 70° |
| 2026-04-25 18:23 | 47.23414 | -53.40770 | 34363 ft | 506 kts | 70° |
| 2026-04-25 18:23 | 47.25190 | -53.31681 | 34354 ft | 506 kts | 71° |
| 2026-04-25 18:24 | 47.26968 | -53.22544 | 34347 ft | 506 kts | 71° |
| 2026-04-25 18:24 | 47.28764 | -53.13267 | 34333 ft | 506 kts | 71° |
| 2026-04-25 18:25 | 47.30525 | -53.04134 | 34297 ft | 507 kts | 71° |
| 2026-04-25 18:25 | 47.32279 | -52.94987 | 34253 ft | 507 kts | 71° |
| 2026-04-25 18:26 | 47.34013 | -52.85901 | 34191 ft | 507 kts | 71° |
| 2026-04-25 18:26 | 47.35695 | -52.77050 | 34098 ft | 507 kts | 71° |
| 2026-04-25 18:27 | 47.37390 | -52.68080 | 33998 ft | 507 kts | 71° |
| 2026-04-25 18:27 | 47.39081 | -52.59096 | 33862 ft | 508 kts | 71° |
| 2026-04-25 18:28 | 47.40722 | -52.50325 | 33533 ft | 493 kts | 71° |
| 2026-04-25 18:28 | 47.41509 | -52.46101 | 33207 ft | 487 kts | 71° |
| 2026-04-25 18:28 | 47.42340 | -52.41642 | 32879 ft | 500 kts | 71° |
| 2026-04-25 18:29 | 47.43990 | -52.32758 | 32099 ft | 500 kts | 71° |
| 2026-04-25 18:29 | 47.44801 | -52.28362 | 31709 ft | 495 kts | 70° |
| 2026-04-25 18:30 | 47.47133 | -52.15675 | 30510 ft | 483 kts | 69° |
| 2026-04-25 18:30 | 47.47919 | -52.11382 | 29944 ft | 478 kts | 69° |
| 2026-04-25 18:30 | 47.48681 | -52.07212 | 29387 ft | 474 kts | 69° |
| 2026-04-25 18:30 | 47.49418 | -52.03183 | 28806 ft | 479 kts | 69° |
| 2026-04-25 18:31 | 47.50251 | -51.99080 | 28210 ft | 492 kts | 65° |
| 2026-04-25 18:31 | 47.51297 | -51.94955 | 27598 ft | 493 kts | 63° |
| 2026-04-25 18:31 | 47.52381 | -51.90795 | 27295 ft | 488 kts | 63° |
| 2026-04-25 18:31 | 47.53468 | -51.86621 | 27278 ft | 484 kts | 63° |
| 2026-04-25 18:32 | 47.54573 | -51.82377 | 27278 ft | 485 kts | 63° |
| 2026-04-25 18:32 | 47.55612 | -51.78376 | 27274 ft | 484 kts | 63° |
| 2026-04-25 18:32 | 47.56621 | -51.74480 | 27277 ft | 485 kts | 63° |
| 2026-04-25 18:32 | 47.57660 | -51.70460 | 27275 ft | 484 kts | 63° |
| 2026-04-25 18:33 | 47.58709 | -51.66392 | 27275 ft | 483 kts | 63° |
| 2026-04-25 18:33 | 47.59766 | -51.62284 | 27273 ft | 483 kts | 63° |
| 2026-04-25 18:33 | 47.60857 | -51.58042 | 27276 ft | 487 kts | 63° |
| 2026-04-25 18:33 | 47.61913 | -51.53920 | 27274 ft | 485 kts | 63° |
| 2026-04-25 18:34 | 47.63012 | -51.49624 | 27272 ft | 484 kts | 63° |
| 2026-04-25 18:34 | 47.64140 | -51.45204 | 27268 ft | 482 kts | 63° |
| 2026-04-25 18:34 | 47.65258 | -51.40816 | 27268 ft | 482 kts | 63° |
| 2026-04-25 18:34 | 47.66296 | -51.36736 | 27266 ft | 482 kts | 63° |
| 2026-04-25 18:35 | 47.67350 | -51.32581 | 27267 ft | 482 kts | 64° |
| 2026-04-25 18:35 | 47.68422 | -51.28355 | 27265 ft | 483 kts | 64° |
| 2026-04-25 18:35 | 47.69564 | -51.23838 | 27258 ft | 482 kts | 64° |
| 2026-04-25 18:35 | 47.70705 | -51.19315 | 27263 ft | 481 kts | 64° |
| 2026-04-25 18:36 | 47.71688 | -51.15411 | 27258 ft | 481 kts | 64° |
| 2026-04-25 18:36 | 47.71807 | -51.14955 | 27191 ft | 403 kts | 74° |
| 2026-04-25 18:36 | 47.72329 | -51.12898 | 27209 ft | 357 kts | 71° |
| 2026-04-25 18:37 | 47.72458 | -51.12370 | 27290 ft | 359 kts | 59° |
| 2026-04-25 18:37 | 47.77768 | -50.90556 | 27271 ft | 451 kts | 56° |
| 2026-04-25 18:37 | 47.79012 | -50.86508 | 27249 ft | 471 kts | 63° |
| 2026-04-25 18:37 | 47.80063 | -50.82277 | 27249 ft | 480 kts | 65° |
| 2026-04-25 18:38 | 47.81148 | -50.77810 | 27245 ft | 483 kts | 64° |
| 2026-04-25 18:38 | 47.82227 | -50.73370 | 27225 ft | 481 kts | 65° |
| 2026-04-25 18:38 | 47.83258 | -50.69138 | 27245 ft | 483 kts | 65° |
| 2026-04-25 18:38 | 47.84278 | -50.64955 | 27241 ft | 483 kts | 65° |
| 2026-04-25 18:39 | 47.85309 | -50.60730 | 27243 ft | 484 kts | 65° |
| 2026-04-25 18:39 | 47.86356 | -50.56437 | 27237 ft | 481 kts | 65° |
| 2026-04-25 18:39 | 47.89070 | -50.45293 | 27240 ft | 483 kts | 65° |
| 2026-04-25 18:39 | 47.90142 | -50.40892 | 27232 ft | 485 kts | 65° |
| 2026-04-25 18:40 | 47.91224 | -50.36435 | 27221 ft | 484 kts | 65° |
| 2026-04-25 18:40 | 47.92273 | -50.32113 | 27219 ft | 485 kts | 66° |
| 2026-04-25 18:40 | 47.93310 | -50.27824 | 27217 ft | 484 kts | 66° |
| 2026-04-25 18:40 | 47.94363 | -50.23467 | 27212 ft | 484 kts | 66° |
| 2026-04-25 18:41 | 47.95383 | -50.19241 | 27236 ft | 484 kts | 66° |
| 2026-04-25 18:41 | 47.96403 | -50.15005 | 27220 ft | 485 kts | 66° |
| 2026-04-25 18:41 | 47.97445 | -50.10690 | 27221 ft | 485 kts | 65° |
| 2026-04-25 18:41 | 47.98721 | -50.06558 | 27227 ft | 483 kts | 58° |
| 2026-04-25 18:42 | 48.00243 | -50.02837 | 27211 ft | 482 kts | 57° |
| 2026-04-25 18:42 | 48.00749 | -50.01511 | 27205 ft | 483 kts | 59° |
| 2026-04-25 18:42 | 48.02629 | -49.94355 | 27228 ft | 489 kts | 72° |
| 2026-04-25 18:42 | 48.03355 | -49.89814 | 27197 ft | 490 kts | 73° |
| 2026-04-25 18:43 | 48.04044 | -49.85280 | 27211 ft | 490 kts | 74° |
| 2026-04-25 18:43 | 48.04744 | -49.80726 | 27189 ft | 491 kts | 74° |
| 2026-04-25 18:43 | 48.05535 | -49.76238 | 27206 ft | 485 kts | 71° |
| 2026-04-25 18:43 | 48.06386 | -49.71847 | 27217 ft | 487 kts | 71° |
| 2026-04-25 18:44 | 48.07250 | -49.67420 | 27284 ft | 499 kts | 71° |
| 2026-04-25 18:44 | 48.08119 | -49.62951 | 27620 ft | 500 kts | 71° |
| 2026-04-25 18:44 | 48.09001 | -49.58402 | 28039 ft | 500 kts | 71° |
| 2026-04-25 18:44 | 48.09885 | -49.53836 | 28193 ft | 505 kts | 71° |
| 2026-04-25 18:45 | 48.11642 | -49.44724 | 28214 ft | 507 kts | 72° |
| 2026-04-25 18:45 | 48.13427 | -49.35421 | 28227 ft | 508 kts | 72° |
| 2026-04-25 18:46 | 48.15188 | -49.26192 | 28228 ft | 507 kts | 73° |
| 2026-04-25 18:46 | 48.16927 | -49.17036 | 28230 ft | 507 kts | 73° |
| 2026-04-25 18:47 | 48.18635 | -49.08001 | 28237 ft | 507 kts | 73° |
| 2026-04-25 18:47 | 48.20285 | -48.99230 | 28239 ft | 508 kts | 73° |
| 2026-04-25 18:48 | 48.21956 | -48.90312 | 28249 ft | 510 kts | 73° |
| 2026-04-25 18:48 | 48.23680 | -48.81061 | 28251 ft | 510 kts | 73° |
| 2026-04-25 18:49 | 48.25383 | -48.71875 | 28262 ft | 511 kts | 74° |
| 2026-04-25 18:49 | 48.27129 | -48.62409 | 28264 ft | 511 kts | 74° |
| 2026-04-25 18:50 | 48.28871 | -48.52921 | 28265 ft | 511 kts | 74° |
| 2026-04-25 18:50 | 48.30591 | -48.43502 | 28267 ft | 512 kts | 74° |
| 2026-04-25 18:51 | 48.31736 | -48.37205 | 28267 ft | 513 kts | 75° |
| 2026-04-25 18:51 | 48.33993 | -48.24722 | 28272 ft | 515 kts | 75° |
| 2026-04-25 18:52 | 48.35676 | -48.15364 | 28272 ft | 516 kts | 75° |
| 2026-04-25 18:52 | 48.37386 | -48.05803 | 28278 ft | 518 kts | 75° |
| 2026-04-25 18:53 | 48.39112 | -47.96100 | 28281 ft | 518 kts | 75° |
| 2026-04-25 18:53 | 48.40813 | -47.86486 | 28286 ft | 517 kts | 76° |
| 2026-04-25 18:54 | 48.43348 | -47.72067 | 28298 ft | 516 kts | 76° |
| 2026-04-25 18:55 | 48.44581 | -47.65004 | 28304 ft | 516 kts | 76° |
| 2026-04-25 18:55 | 48.46268 | -47.55304 | 28316 ft | 517 kts | 76° |
| 2026-04-25 18:56 | 48.47924 | -47.45727 | 28311 ft | 518 kts | 76° |
| 2026-04-25 18:56 | 48.49589 | -47.36044 | 28318 ft | 519 kts | 76° |
| 2026-04-25 18:57 | 48.51242 | -47.26378 | 28327 ft | 519 kts | 77° |
| 2026-04-25 18:57 | 48.52992 | -47.16083 | 28327 ft | 520 kts | 77° |
| 2026-04-25 18:58 | 48.54767 | -47.05587 | 28325 ft | 521 kts | 77° |
| 2026-04-25 18:58 | 48.57357 | -46.90141 | 28327 ft | 522 kts | 78° |
| 2026-04-25 18:59 | 48.60675 | -46.70159 | 28346 ft | 524 kts | 78° |
| 2026-04-25 19:00 | 48.63005 | -46.55982 | 28355 ft | 524 kts | 78° |
| 2026-04-25 19:01 | 48.65431 | -46.41089 | 28357 ft | 524 kts | 78° |
| 2026-04-25 19:01 | 48.67044 | -46.31117 | 28364 ft | 525 kts | 79° |
| 2026-04-25 19:02 | 48.69481 | -46.15938 | 28378 ft | 528 kts | 79° |
| 2026-04-25 19:03 | 48.71389 | -46.03951 | 28385 ft | 528 kts | 79° |
| 2026-04-25 19:03 | 48.73523 | -45.90443 | 28386 ft | 528 kts | 79° |
| 2026-04-25 19:04 | 48.75894 | -45.75297 | 28398 ft | 529 kts | 79° |
| 2026-04-25 19:05 | 48.79030 | -45.55053 | 28401 ft | 530 kts | 79° |
| 2026-04-25 19:06 | 48.80681 | -45.44291 | 28410 ft | 531 kts | 80° |
| 2026-04-25 19:06 | 48.82948 | -45.29388 | 28583 ft | 535 kts | 81° |
| 2026-04-25 19:07 | 48.84404 | -45.19751 | 29263 ft | 532 kts | 81° |
| 2026-04-25 19:07 | 48.85163 | -45.14704 | 29650 ft | 531 kts | 81° |
| 2026-04-25 19:08 | 48.86654 | -45.04735 | 30311 ft | 532 kts | 81° |
| 2026-04-25 19:08 | 48.87389 | -44.99798 | 30611 ft | 532 kts | 81° |
| 2026-04-25 19:09 | 48.89612 | -44.84772 | 31517 ft | 531 kts | 81° |
| 2026-04-25 19:09 | 48.89850 | -44.83150 | 31610 ft | 531 kts | 81° |
| 2026-04-25 19:09 | 48.91828 | -44.69640 | 32310 ft | 531 kts | 81° |
| 2026-04-25 19:10 | 48.92555 | -44.64646 | 32547 ft | 531 kts | 81° |
| 2026-04-25 19:10 | 48.93292 | -44.59566 | 32798 ft | 531 kts | 81° |
| 2026-04-25 19:10 | 48.94014 | -44.54571 | 33022 ft | 531 kts | 81° |
| 2026-04-25 19:10 | 48.94732 | -44.49587 | 33271 ft | 531 kts | 81° |
| 2026-04-25 19:11 | 48.95452 | -44.44575 | 33546 ft | 530 kts | 81° |
| 2026-04-25 19:11 | 48.96147 | -44.39724 | 33827 ft | 530 kts | 81° |
| 2026-04-25 19:11 | 48.96851 | -44.34791 | 34084 ft | 529 kts | 82° |
| 2026-04-25 19:11 | 48.97550 | -44.29878 | 34336 ft | 529 kts | 82° |
| 2026-04-25 19:12 | 48.98304 | -44.24554 | 34618 ft | 529 kts | 82° |
| 2026-04-25 19:12 | 48.99062 | -44.19194 | 34900 ft | 528 kts | 82° |
| 2026-04-25 19:12 | 48.99793 | -44.13996 | 35139 ft | 528 kts | 81° |
| 2026-04-25 19:12 | 49.00545 | -44.08635 | 35379 ft | 528 kts | 81° |
| 2026-04-25 19:13 | 49.01294 | -44.03278 | 35621 ft | 528 kts | 82° |
| 2026-04-25 19:13 | 49.02025 | -43.98029 | 35841 ft | 528 kts | 82° |
| 2026-04-25 19:13 | 49.02757 | -43.92749 | 36055 ft | 529 kts | 82° |
| 2026-04-25 19:13 | 49.03503 | -43.87353 | 36282 ft | 528 kts | 81° |
| 2026-04-25 19:14 | 49.04249 | -43.81935 | 36448 ft | 529 kts | 81° |
| 2026-04-25 19:14 | 49.05712 | -43.71249 | 36494 ft | 534 kts | 82° |
| 2026-04-25 19:15 | 49.07085 | -43.61156 | 36502 ft | 532 kts | 82° |
| 2026-04-25 19:15 | 49.08511 | -43.50600 | 36502 ft | 530 kts | 82° |
| 2026-04-25 19:16 | 49.09901 | -43.40236 | 36504 ft | 529 kts | 82° |
| 2026-04-25 19:16 | 49.11253 | -43.30081 | 36502 ft | 529 kts | 83° |
| 2026-04-25 19:17 | 49.12588 | -43.19970 | 36482 ft | 530 kts | 83° |
| 2026-04-25 19:17 | 49.13918 | -43.09835 | 36492 ft | 529 kts | 83° |
| 2026-04-25 19:18 | 49.15208 | -42.99935 | 36495 ft | 529 kts | 83° |
| 2026-04-25 19:18 | 49.16556 | -42.89514 | 36494 ft | 528 kts | 83° |
| 2026-04-25 19:19 | 49.17912 | -42.78953 | 36502 ft | 529 kts | 83° |
| 2026-04-25 19:19 | 49.19234 | -42.68572 | 36502 ft | 529 kts | 83° |
| 2026-04-25 19:20 | 49.20544 | -42.58209 | 36502 ft | 529 kts | 83° |
| 2026-04-25 19:20 | 49.21816 | -42.48076 | 36513 ft | 529 kts | 83° |
| 2026-04-25 19:21 | 49.23089 | -42.37852 | 36515 ft | 529 kts | 83° |
| 2026-04-25 19:21 | 49.24969 | -42.22612 | 36508 ft | 529 kts | 84° |
| 2026-04-25 19:22 | 49.26260 | -42.12041 | 36517 ft | 529 kts | 84° |
| 2026-04-25 19:23 | 49.28262 | -41.95482 | 36510 ft | 529 kts | 84° |
| 2026-04-25 19:23 | 49.30247 | -41.78852 | 36517 ft | 528 kts | 84° |
| 2026-04-25 19:24 | 49.31559 | -41.67744 | 36520 ft | 529 kts | 84° |
| 2026-04-25 19:25 | 49.34142 | -41.45589 | 36535 ft | 529 kts | 84° |
| 2026-04-25 19:25 | 49.35409 | -41.34573 | 36524 ft | 529 kts | 85° |
| 2026-04-25 19:26 | 49.36640 | -41.23782 | 36528 ft | 527 kts | 85° |
| 2026-04-25 19:26 | 49.37857 | -41.13021 | 36539 ft | 528 kts | 85° |
| 2026-04-25 19:27 | 49.38656 | -41.05902 | 36538 ft | 528 kts | 85° |
| 2026-04-25 19:27 | 49.39520 | -40.92358 | 36548 ft | 521 kts | 96° |
| 2026-04-25 19:28 | 49.39477 | -40.82211 | 36535 ft | 521 kts | 96° |
| 2026-04-25 19:28 | 49.40119 | -40.71908 | 36538 ft | 531 kts | 82° |
| 2026-04-25 19:29 | 49.41835 | -40.61787 | 36545 ft | 533 kts | 80° |
| 2026-04-25 19:29 | 49.43591 | -40.51781 | 36550 ft | 534 kts | 79° |
| 2026-04-25 19:30 | 49.45334 | -40.41781 | 36540 ft | 534 kts | 80° |
| 2026-04-25 19:30 | 49.46671 | -40.31574 | 36552 ft | 529 kts | 86° |
| 2026-04-25 19:31 | 49.47756 | -40.21396 | 36654 ft | 528 kts | 86° |
| 2026-04-25 19:31 | 49.48838 | -40.11122 | 36751 ft | 528 kts | 86° |
| 2026-04-25 19:32 | 49.49887 | -40.00956 | 36846 ft | 530 kts | 89° |
| 2026-04-25 19:32 | 49.50209 | -39.95793 | 36975 ft | 527 kts | 90° |
| 2026-04-25 19:32 | 49.50303 | -39.94150 | 37035 ft | 526 kts | 91° |
| 2026-04-25 19:33 | 49.50664 | -39.85593 | 37388 ft | 523 kts | 91° |
| 2026-04-25 19:33 | 49.50867 | -39.80443 | 37535 ft | 524 kts | 91° |
| 2026-04-25 19:33 | 49.51274 | -39.70104 | 37557 ft | 527 kts | 91° |
| 2026-04-25 19:34 | 49.52093 | -39.49107 | 37571 ft | 523 kts | 91° |
| 2026-04-25 19:34 | 49.52781 | -39.30860 | 37568 ft | 523 kts | 92° |
| 2026-04-25 19:35 | 49.53162 | -39.20474 | 37560 ft | 524 kts | 92° |
| 2026-04-25 19:35 | 49.53561 | -39.09319 | 37568 ft | 523 kts | 92° |
| 2026-04-25 19:36 | 49.53996 | -38.96804 | 37576 ft | 525 kts | 92° |
| 2026-04-25 19:36 | 49.54375 | -38.85574 | 37575 ft | 524 kts | 92° |
| 2026-04-25 19:37 | 49.54747 | -38.74236 | 37587 ft | 524 kts | 92° |
| 2026-04-25 19:37 | 49.55397 | -38.53541 | 37625 ft | 524 kts | 92° |
| 2026-04-25 19:38 | 49.55712 | -38.43019 | 37600 ft | 525 kts | 92° |
| 2026-04-25 19:38 | 49.56016 | -38.32594 | 37608 ft | 523 kts | 93° |
| 2026-04-25 19:39 | 49.56307 | -38.22323 | 37608 ft | 523 kts | 93° |
| 2026-04-25 19:39 | 49.56587 | -38.12064 | 37610 ft | 525 kts | 93° |
| 2026-04-25 19:40 | 49.56863 | -38.01633 | 37607 ft | 525 kts | 93° |
| 2026-04-25 19:40 | 49.57126 | -37.91362 | 37607 ft | 525 kts | 92° |
| 2026-04-25 19:41 | 49.57393 | -37.80496 | 37606 ft | 526 kts | 93° |
| 2026-04-25 19:41 | 49.57556 | -37.73669 | 37607 ft | 526 kts | 92° |
| 2026-04-25 19:42 | 49.57900 | -37.58711 | 37628 ft | 527 kts | 93° |
| 2026-04-25 19:42 | 49.58145 | -37.47472 | 37635 ft | 528 kts | 92° |
| 2026-04-25 19:43 | 49.58360 | -37.37164 | 37630 ft | 528 kts | 92° |
| 2026-04-25 19:43 | 49.58567 | -37.26865 | 37634 ft | 528 kts | 93° |
| 2026-04-25 19:44 | 49.58762 | -37.16613 | 37667 ft | 528 kts | 93° |
| 2026-04-25 19:44 | 49.58947 | -37.06486 | 37670 ft | 529 kts | 93° |
| 2026-04-25 19:45 | 49.59123 | -36.96354 | 37672 ft | 529 kts | 93° |
| 2026-04-25 19:45 | 49.59288 | -36.86331 | 37587 ft | 528 kts | 94° |
| 2026-04-25 19:46 | 49.59444 | -36.76369 | 37680 ft | 529 kts | 93° |
| 2026-04-25 19:46 | 49.59594 | -36.66168 | 37673 ft | 531 kts | 93° |
| 2026-04-25 19:47 | 49.59752 | -36.54757 | 37698 ft | 532 kts | 93° |
| 2026-04-25 19:47 | 49.59900 | -36.43264 | 37709 ft | 533 kts | 93° |
| 2026-04-25 19:48 | 49.60037 | -36.31683 | 37717 ft | 534 kts | 94° |
| 2026-04-25 19:48 | 49.60151 | -36.21206 | 37713 ft | 534 kts | 94° |
| 2026-04-25 19:49 | 49.60222 | -36.14206 | 37725 ft | 534 kts | 94° |
| 2026-04-25 19:49 | 49.60341 | -36.01389 | 37729 ft | 533 kts | 94° |
| 2026-04-25 19:50 | 49.60467 | -35.85777 | 37734 ft | 534 kts | 94° |
| 2026-04-25 19:51 | 49.60540 | -35.75279 | 37735 ft | 534 kts | 94° |
| 2026-04-25 19:51 | 49.60603 | -35.64811 | 37745 ft | 534 kts | 94° |
| 2026-04-25 19:52 | 49.60657 | -35.54393 | 37739 ft | 535 kts | 94° |
| 2026-04-25 19:52 | 49.60701 | -35.43969 | 37752 ft | 535 kts | 94° |
| 2026-04-25 19:53 | 49.60735 | -35.33681 | 37751 ft | 535 kts | 95° |
| 2026-04-25 19:53 | 49.60761 | -35.23230 | 37747 ft | 534 kts | 95° |